createdAt,value
2018-03-22T00:00:32.928Z,2.43
2018-03-22T00:03:35.391Z,2.41
2018-03-22T00:06:37.961Z,2.41
2018-03-22T00:09:40.517Z,2.42
2018-03-22T00:12:43.097Z,2.45
2018-03-22T00:15:45.611Z,2.45
2018-03-22T00:18:48.101Z,2.49
2018-03-22T00:21:50.662Z,2.44
2018-03-22T00:24:53.234Z,2.43
2018-03-22T00:27:55.726Z,2.45
2018-03-22T00:30:58.242Z,2.44
2018-03-22T00:34:00.816Z,2.44
2018-03-22T00:37:03.379Z,2.51
2018-03-22T00:40:05.876Z,2.51
2018-03-22T00:43:08.401Z,2.55
2018-03-22T00:46:10.883Z,2.53
2018-03-22T00:49:13.331Z,2.52
2018-03-22T00:52:15.986Z,2.53
2018-03-22T00:55:18.552Z,2.55
2018-03-22T00:58:21.038Z,2.54
2018-03-22T01:01:23.568Z,2.57
2018-03-22T01:04:26.007Z,2.53
2018-03-22T01:07:28.477Z,2.53
2018-03-22T01:10:31.054Z,2.53
2018-03-22T01:13:33.523Z,2.57
2018-03-22T01:16:36.079Z,2.56
2018-03-22T01:19:38.560Z,2.56
2018-03-22T01:22:41.113Z,2.55
2018-03-22T01:25:43.567Z,2.56
2018-03-22T01:28:46.019Z,2.58
2018-03-22T01:31:48.522Z,2.55
2018-03-22T01:34:50.962Z,2.53
2018-03-22T01:37:53.511Z,2.49
2018-03-22T01:40:56.174Z,2.50
2018-03-22T01:43:58.839Z,2.44
2018-03-22T01:47:01.272Z,2.31
2018-03-22T01:50:03.734Z,2.15
2018-03-22T01:53:14.120Z,1.99
2018-03-22T01:56:16.674Z,1.90
2018-03-22T01:59:19.223Z,1.79
2018-03-22T02:02:21.664Z,1.72
2018-03-22T02:05:24.167Z,1.75
2018-03-22T02:08:26.608Z,1.67
2018-03-22T02:11:29.179Z,1.51
2018-03-22T02:14:31.835Z,1.49
2018-03-22T02:17:34.273Z,1.46
2018-03-22T02:20:36.732Z,1.29
2018-03-22T02:23:39.184Z,1.34
2018-03-22T02:26:41.690Z,1.37
2018-03-22T02:29:44.196Z,1.23
2018-03-22T02:32:46.718Z,1.23
2018-03-22T02:35:49.260Z,1.17
2018-03-22T02:38:51.795Z,1.08
2018-03-22T02:41:54.249Z,1.04
2018-03-22T02:44:56.720Z,1.06
2018-03-22T02:47:59.242Z,0.99
2018-03-22T02:51:01.879Z,1.06
2018-03-22T02:54:04.433Z,1.01
2018-03-22T02:57:06.864Z,1.01
2018-03-22T03:00:09.350Z,1.04
2018-03-22T03:03:11.777Z,1.02
2018-03-22T03:06:14.273Z,0.98
2018-03-22T03:09:16.740Z,0.98
2018-03-22T03:12:19.279Z,1.07
2018-03-22T03:15:21.865Z,1.06
2018-03-22T03:18:24.323Z,1.07
2018-03-22T03:21:26.884Z,1.14
2018-03-22T03:24:29.446Z,1.26
2018-03-22T03:27:31.884Z,1.22
2018-03-22T03:30:34.365Z,1.27
2018-03-22T03:33:36.929Z,1.32
2018-03-22T03:36:39.459Z,1.35
2018-03-22T03:39:41.925Z,1.39
2018-03-22T03:42:44.414Z,1.36
2018-03-22T03:45:46.875Z,1.43
2018-03-22T03:48:49.443Z,1.47
2018-03-22T03:51:51.896Z,1.50
2018-03-22T03:54:54.460Z,1.48
2018-03-22T03:57:57.024Z,1.56
2018-03-22T04:00:59.570Z,1.55
2018-03-22T04:04:02.053Z,1.58
2018-03-22T04:07:04.553Z,1.63
2018-03-22T04:10:07.070Z,1.64
2018-03-22T04:13:09.600Z,1.68
2018-03-22T04:16:12.087Z,1.70
2018-03-22T04:19:14.611Z,1.77
2018-03-22T04:22:17.093Z,1.67
2018-03-22T04:25:19.684Z,1.69
2018-03-22T04:28:22.111Z,1.61
2018-03-22T04:31:24.579Z,1.64
2018-03-22T04:34:27.034Z,1.65
2018-03-22T04:37:29.521Z,1.64
2018-03-22T04:40:31.984Z,1.63
2018-03-22T04:43:34.443Z,1.64
2018-03-22T04:46:37.009Z,1.67
2018-03-22T04:49:39.525Z,1.75
2018-03-22T04:52:42.039Z,1.78
2018-03-22T04:55:44.495Z,1.77
2018-03-22T04:58:47.051Z,1.79
2018-03-22T05:01:49.489Z,1.82
2018-03-22T05:04:51.980Z,1.81
2018-03-22T05:07:54.470Z,1.83
2018-03-22T05:10:57.076Z,1.86
2018-03-22T05:13:59.560Z,1.83
2018-03-22T05:17:02.078Z,1.88
2018-03-22T05:20:04.579Z,1.87
2018-03-22T05:23:07.032Z,1.86
2018-03-22T05:26:09.709Z,1.82
2018-03-22T05:29:12.154Z,1.85
2018-03-22T05:32:14.655Z,1.81
2018-03-22T05:35:17.192Z,1.79
2018-03-22T05:38:19.686Z,1.76
2018-03-22T05:41:22.214Z,1.79
2018-03-22T05:44:24.692Z,1.82
2018-03-22T05:47:27.176Z,1.79
2018-03-22T05:50:29.673Z,1.78
2018-03-22T05:53:32.107Z,1.80
2018-03-22T05:56:34.582Z,1.84
2018-03-22T05:59:38.001Z,1.82
2018-03-22T06:02:40.494Z,1.83
2018-03-22T06:05:43.022Z,1.85
2018-03-22T06:08:45.502Z,1.86
2018-03-22T06:11:48.045Z,1.93
2018-03-22T06:14:50.596Z,1.90
2018-03-22T06:17:53.066Z,1.91
2018-03-22T06:20:55.543Z,1.95
2018-03-22T06:23:57.960Z,1.87
2018-03-22T06:27:00.445Z,1.85
2018-03-22T06:30:02.918Z,1.92
2018-03-22T06:33:05.410Z,1.91
2018-03-22T06:36:07.900Z,1.90
2018-03-22T06:39:10.395Z,1.93
2018-03-22T06:42:12.874Z,1.91
2018-03-22T06:45:15.425Z,1.70
2018-03-22T06:48:17.877Z,1.68
2018-03-22T06:51:20.444Z,1.65
2018-03-22T06:54:22.941Z,1.72
2018-03-22T06:57:25.526Z,1.77
2018-03-22T07:00:28.042Z,1.76
2018-03-22T07:03:30.531Z,1.85
2018-03-22T07:06:33.057Z,1.90
2018-03-22T07:09:35.531Z,1.95
2018-03-22T07:12:38.076Z,2.00
2018-03-22T07:15:40.638Z,1.97
2018-03-22T07:18:43.138Z,1.99
2018-03-22T07:21:45.600Z,2.01
2018-03-22T07:24:48.120Z,2.05
2018-03-22T07:27:50.690Z,2.05
2018-03-22T07:30:53.151Z,2.00
2018-03-22T07:33:55.624Z,1.97
2018-03-22T07:36:58.117Z,2.07
2018-03-22T07:40:00.633Z,2.01
2018-03-22T07:43:08.924Z,2.06
2018-03-22T07:46:11.396Z,2.06
2018-03-22T07:49:13.952Z,2.11
2018-03-22T07:52:16.423Z,2.11
2018-03-22T07:55:18.891Z,2.11
2018-03-22T07:58:21.408Z,2.16
2018-03-22T08:01:23.864Z,2.15
2018-03-22T08:04:26.302Z,2.10
2018-03-22T08:07:28.787Z,2.11
2018-03-22T08:10:31.227Z,2.15
2018-03-22T08:13:33.693Z,2.16
2018-03-22T08:16:36.149Z,2.27
2018-03-22T08:19:38.658Z,2.34
2018-03-22T08:22:41.229Z,2.31
2018-03-22T08:25:43.787Z,2.42
2018-03-22T08:28:46.281Z,2.44
2018-03-22T08:31:48.721Z,2.38
2018-03-22T08:34:51.262Z,2.44
2018-03-22T08:37:53.727Z,2.49
2018-03-22T08:40:56.207Z,2.69
2018-03-22T08:43:58.748Z,2.61
2018-03-22T08:47:01.216Z,2.61
2018-03-22T08:50:03.669Z,2.72
2018-03-22T08:53:06.133Z,2.78
2018-03-22T08:56:08.697Z,2.78
2018-03-22T08:59:11.174Z,2.85
2018-03-22T09:02:13.659Z,2.84
2018-03-22T09:05:16.150Z,2.94
2018-03-22T09:08:18.606Z,3.16
2018-03-22T09:11:21.097Z,3.31
2018-03-22T09:14:23.620Z,3.20
2018-03-22T09:17:26.128Z,3.35
2018-03-22T09:20:28.593Z,3.30
2018-03-22T09:23:31.114Z,3.45
2018-03-22T09:26:39.237Z,3.54
2018-03-22T09:29:41.675Z,3.50
2018-03-22T09:32:44.165Z,3.74
2018-03-22T09:35:46.723Z,3.73
2018-03-22T09:38:49.184Z,3.91
2018-03-22T09:41:51.679Z,4.17
2018-03-22T09:44:54.221Z,4.05
2018-03-22T09:47:57.427Z,4.14
2018-03-22T09:50:59.908Z,4.01
2018-03-22T09:54:02.384Z,3.92
2018-03-22T09:57:04.885Z,3.89
2018-03-22T10:00:07.379Z,4.23
2018-03-22T10:03:09.888Z,4.35
2018-03-22T10:06:12.320Z,4.58
2018-03-22T10:09:14.909Z,4.60
2018-03-22T10:12:17.475Z,4.66
2018-03-22T10:15:19.909Z,4.73
2018-03-22T10:18:22.394Z,4.90
2018-03-22T10:21:24.957Z,5.18
2018-03-22T10:24:27.395Z,4.67
2018-03-22T10:27:29.878Z,4.91
2018-03-22T10:30:32.444Z,5.07
2018-03-22T10:33:34.908Z,5.07
2018-03-22T10:36:37.345Z,4.86
2018-03-22T10:39:39.829Z,5.00
2018-03-22T10:42:42.315Z,5.09
2018-03-22T10:45:44.826Z,5.65
2018-03-22T10:48:47.278Z,5.62
2018-03-22T10:51:49.763Z,5.82
2018-03-22T10:54:52.224Z,5.92
2018-03-22T10:57:54.686Z,6.38
2018-03-22T11:01:02.884Z,6.58
2018-03-22T11:04:08.185Z,6.52
2018-03-22T11:07:10.723Z,6.50
2018-03-22T11:10:13.188Z,6.63
2018-03-22T11:13:15.791Z,6.61
2018-03-22T11:16:18.234Z,6.83
2018-03-22T11:19:20.709Z,6.76
2018-03-22T11:22:23.230Z,6.41
2018-03-22T11:25:25.688Z,6.44
2018-03-22T11:28:28.168Z,6.25
2018-03-22T11:31:30.655Z,6.46
2018-03-22T11:34:33.130Z,6.70
2018-03-22T11:37:35.633Z,6.33
2018-03-22T11:40:38.151Z,6.12
2018-03-22T11:43:40.648Z,6.13
2018-03-22T11:46:43.170Z,6.09
2018-03-22T11:49:45.661Z,5.86
2018-03-22T11:52:48.189Z,5.79
2018-03-22T11:55:50.647Z,5.53
2018-03-22T11:58:53.119Z,5.66
2018-03-22T12:01:55.682Z,5.40
2018-03-22T12:04:58.184Z,5.40
2018-03-22T12:08:00.644Z,5.56
2018-03-22T12:11:03.183Z,5.57
2018-03-22T12:14:05.609Z,5.67
2018-03-22T12:17:08.089Z,5.59
2018-03-22T12:20:10.635Z,5.60
2018-03-22T12:23:13.106Z,5.28
2018-03-22T12:26:15.865Z,5.33
2018-03-22T12:29:18.295Z,5.37
2018-03-22T12:32:20.788Z,5.36
2018-03-22T12:35:23.454Z,5.43
2018-03-22T12:38:25.959Z,5.65
2018-03-22T12:41:28.507Z,5.64
2018-03-22T12:44:31.037Z,5.78
2018-03-22T12:47:33.663Z,5.87
2018-03-22T12:50:36.166Z,6.02
2018-03-22T12:53:38.650Z,6.16
2018-03-22T12:56:41.194Z,6.23
2018-03-22T12:59:43.717Z,6.37
2018-03-22T13:02:46.170Z,6.41
2018-03-22T13:05:48.657Z,6.23
2018-03-22T13:08:51.238Z,6.10
2018-03-22T13:11:53.722Z,6.12
2018-03-22T13:14:56.258Z,6.31
2018-03-22T13:17:58.825Z,6.61
2018-03-22T13:21:01.298Z,6.69
2018-03-22T13:24:03.801Z,6.51
2018-03-22T13:27:06.407Z,6.56
2018-03-22T13:30:08.967Z,6.97
2018-03-22T13:33:11.413Z,7.07
2018-03-22T13:36:13.915Z,7.27
2018-03-22T13:39:16.346Z,6.95
2018-03-22T13:42:18.857Z,6.90
2018-03-22T13:45:21.395Z,7.18
2018-03-22T13:48:23.863Z,7.02
2018-03-22T13:51:26.361Z,7.09
2018-03-22T13:54:28.861Z,7.19
2018-03-22T13:57:31.337Z,7.26
2018-03-22T14:00:34.697Z,7.24
2018-03-22T14:03:37.276Z,7.29
2018-03-22T14:06:39.827Z,7.12
2018-03-22T14:09:42.367Z,7.15
2018-03-22T14:12:44.907Z,6.97
2018-03-22T14:15:47.416Z,7.04
2018-03-22T14:18:50.041Z,6.97
2018-03-22T14:21:52.542Z,7.24
2018-03-22T14:24:55.218Z,7.05
2018-03-22T14:27:57.728Z,6.66
2018-03-22T14:31:00.244Z,6.71
2018-03-22T14:34:02.792Z,6.70
2018-03-22T14:37:05.267Z,6.71
2018-03-22T14:40:07.711Z,6.73
2018-03-22T14:43:10.685Z,6.59
2018-03-22T14:46:13.157Z,6.58
2018-03-22T14:49:15.705Z,6.78
2018-03-22T14:52:18.168Z,6.86
2018-03-22T14:55:20.638Z,6.85
2018-03-22T14:58:23.192Z,6.82
2018-03-22T15:01:25.769Z,6.73
2018-03-22T15:04:28.285Z,6.70
2018-03-22T15:07:30.873Z,6.71
2018-03-22T15:10:33.412Z,6.78
2018-03-22T15:13:35.899Z,6.68
2018-03-22T15:16:38.397Z,6.68
2018-03-22T15:19:40.932Z,6.81
2018-03-22T15:22:43.382Z,6.82
2018-03-22T15:25:45.859Z,6.94
2018-03-22T15:28:48.408Z,7.01
2018-03-22T15:31:50.937Z,7.02
2018-03-22T15:34:53.444Z,7.18
2018-03-22T15:37:55.972Z,7.32
2018-03-22T15:40:58.411Z,7.54
2018-03-22T15:44:00.859Z,7.54
2018-03-22T15:47:03.375Z,7.34
2018-03-22T15:50:05.939Z,7.23
2018-03-22T15:53:08.397Z,7.35
2018-03-22T15:56:10.968Z,7.22
2018-03-22T15:59:13.468Z,7.31
2018-03-22T16:02:15.934Z,7.23
2018-03-22T16:05:18.437Z,7.09
2018-03-22T16:08:20.906Z,7.38
2018-03-22T16:11:23.414Z,7.12
2018-03-22T16:14:25.883Z,7.14
2018-03-22T16:17:28.388Z,7.25
2018-03-22T16:20:30.901Z,7.33
2018-03-22T16:23:33.392Z,7.22
2018-03-22T16:26:35.974Z,7.13
2018-03-22T16:29:38.420Z,6.98
2018-03-22T16:32:40.937Z,6.97
2018-03-22T16:35:43.433Z,6.93
2018-03-22T16:38:47.102Z,6.84
2018-03-22T16:41:49.594Z,6.85
2018-03-22T16:44:52.045Z,6.83
2018-03-22T16:47:54.542Z,6.86
2018-03-22T16:50:57.020Z,6.86
2018-03-22T16:53:59.503Z,6.89
2018-03-22T16:57:02.019Z,6.81
2018-03-22T17:00:04.602Z,6.76
2018-03-22T17:03:07.055Z,6.78
2018-03-22T17:06:09.534Z,6.66
2018-03-22T17:09:12.010Z,6.64
2018-03-22T17:12:14.504Z,6.58
2018-03-22T17:15:17.538Z,6.64
2018-03-22T17:18:20.032Z,6.60
2018-03-22T17:21:22.493Z,6.58
2018-03-22T17:24:25.079Z,6.49
2018-03-22T17:27:27.641Z,6.49
2018-03-22T17:30:30.226Z,6.48
2018-03-22T17:33:32.787Z,6.39
2018-03-22T17:36:35.338Z,6.24
2018-03-22T17:39:37.995Z,6.15
2018-03-22T17:42:40.518Z,6.15
2018-03-22T17:45:43.120Z,6.11
2018-03-22T17:48:45.611Z,6.11
2018-03-22T17:51:48.145Z,6.02
2018-03-22T17:54:50.817Z,6.02
2018-03-22T17:57:53.309Z,5.95
2018-03-22T18:00:55.865Z,5.86
2018-03-22T18:03:58.407Z,5.78
2018-03-22T18:07:00.924Z,5.74
2018-03-22T18:10:03.526Z,5.79
2018-03-22T18:13:06.167Z,5.77
2018-03-22T18:16:08.964Z,5.79
2018-03-22T18:19:11.444Z,5.72
2018-03-22T18:22:13.952Z,5.69
2018-03-22T18:25:16.404Z,5.72
2018-03-22T18:28:19.010Z,5.70
2018-03-22T18:31:21.564Z,5.71
2018-03-22T18:34:24.124Z,5.69
2018-03-22T18:37:26.656Z,5.70
2018-03-22T18:40:29.275Z,5.67
2018-03-22T18:43:31.817Z,5.68
2018-03-22T18:46:34.390Z,5.68
2018-03-22T18:49:36.894Z,5.68
2018-03-22T18:52:39.351Z,5.65
2018-03-22T18:55:41.882Z,5.62
2018-03-22T18:58:44.383Z,5.61
2018-03-22T19:01:46.929Z,5.61
2018-03-22T19:04:49.446Z,5.60
2018-03-22T19:07:51.906Z,5.75
2018-03-22T19:10:54.482Z,5.72
2018-03-22T19:13:56.975Z,5.75
2018-03-22T19:16:59.470Z,5.74
2018-03-22T19:20:02.002Z,5.75
2018-03-22T19:23:04.560Z,5.75
2018-03-22T19:26:07.081Z,5.78
2018-03-22T19:29:09.601Z,5.75
2018-03-22T19:32:12.105Z,5.77
2018-03-22T19:35:14.670Z,5.76
2018-03-22T19:38:17.196Z,5.68
2018-03-22T19:41:19.687Z,5.70
2018-03-22T19:44:22.202Z,5.70
2018-03-22T19:47:24.721Z,5.67
2018-03-22T19:50:27.375Z,5.68
2018-03-22T19:53:29.872Z,5.71
2018-03-22T19:56:32.402Z,5.70
2018-03-22T19:59:34.993Z,5.65
2018-03-22T20:02:37.496Z,5.68
2018-03-22T20:05:40.158Z,5.55
2018-03-22T20:08:42.652Z,5.60
2018-03-22T20:11:45.198Z,5.61
2018-03-22T20:14:47.687Z,5.62
2018-03-22T20:17:50.228Z,5.62
2018-03-22T20:20:52.779Z,5.62
2018-03-22T20:23:55.297Z,5.59
2018-03-22T20:26:57.875Z,5.57
2018-03-22T20:30:00.385Z,5.56
2018-03-22T20:33:02.950Z,5.56
2018-03-22T20:36:05.573Z,5.51
2018-03-22T20:39:08.132Z,5.53
2018-03-22T20:42:12.042Z,5.50
2018-03-22T20:45:14.627Z,5.43
2018-03-22T20:48:17.163Z,5.46
2018-03-22T20:51:19.707Z,5.50
2018-03-22T20:54:22.253Z,5.48
2018-03-22T20:57:24.725Z,5.45
2018-03-22T21:00:27.276Z,5.47
2018-03-22T21:03:29.748Z,5.45
2018-03-22T21:06:32.469Z,5.42
2018-03-22T21:09:35.001Z,5.34
2018-03-22T21:12:37.539Z,5.33
2018-03-22T21:15:40.056Z,5.34
2018-03-22T21:18:42.607Z,5.28
2018-03-22T21:21:45.064Z,5.32
2018-03-22T21:24:47.747Z,5.36
2018-03-22T21:27:50.282Z,5.37
2018-03-22T21:30:52.762Z,5.09
2018-03-22T21:33:55.288Z,5.12
2018-03-22T21:36:57.773Z,5.17
2018-03-22T21:40:00.303Z,4.97
2018-03-22T21:43:02.813Z,4.87
2018-03-22T21:46:05.313Z,4.87
2018-03-22T21:49:07.809Z,4.78
2018-03-22T21:52:22.071Z,4.78
2018-03-22T21:55:24.634Z,4.79
2018-03-22T21:58:27.202Z,4.72
2018-03-22T22:01:29.702Z,4.72
2018-03-22T22:04:32.214Z,4.68
2018-03-22T22:07:34.729Z,4.62
2018-03-22T22:10:37.217Z,4.57
2018-03-22T22:13:39.694Z,4.57
2018-03-22T22:16:42.217Z,4.54
2018-03-22T22:19:44.864Z,4.51
2018-03-22T22:22:47.313Z,4.51
2018-03-22T22:25:49.798Z,4.47
2018-03-22T22:28:52.296Z,4.45
2018-03-22T22:31:54.776Z,4.45
2018-03-22T22:34:57.290Z,4.48
2018-03-22T22:37:59.758Z,4.46
2018-03-22T22:41:02.278Z,4.52
2018-03-22T22:44:04.792Z,4.50
2018-03-22T22:47:07.379Z,4.51
2018-03-22T22:50:09.862Z,4.44
2018-03-22T22:53:12.383Z,4.46
2018-03-22T22:56:14.933Z,4.47
2018-03-22T22:59:17.424Z,4.49
2018-03-22T23:02:19.866Z,4.51
2018-03-22T23:05:22.380Z,4.50
2018-03-22T23:08:24.860Z,4.44
2018-03-22T23:11:27.347Z,4.43
2018-03-22T23:14:29.813Z,4.45
2018-03-22T23:17:32.338Z,4.42
2018-03-22T23:20:34.863Z,4.42
2018-03-22T23:23:37.349Z,4.42
2018-03-22T23:26:39.829Z,4.41
2018-03-22T23:29:42.339Z,4.37
2018-03-22T23:32:44.825Z,4.35
2018-03-22T23:35:47.362Z,4.31
2018-03-22T23:38:49.870Z,4.21
2018-03-22T23:41:52.348Z,4.20
2018-03-22T23:44:54.886Z,4.22
2018-03-22T23:47:57.391Z,4.27
2018-03-22T23:50:59.875Z,4.37
2018-03-22T23:54:02.368Z,4.36
2018-03-22T23:57:04.807Z,4.39
